Time;durP1;ratioP1;P1;durP2;ratioP2;P2;SDS_P1;SDS_P2;PMS_P1;PMS_P2;Temp;Humidity;BMP_temperature;BMP_pressure;BME280_temperature;BME280_humidity;BME280_pressure;Samples;Min_cycle;Max_cycle;Signal;HPM_P1;HPM_P2
2022/03/29 00:00:27;;;;;;;27.17;15.30;;;;;;;12.29;45.63;100179.25;6326517;22;20007;-93
2022/03/29 00:03:06;;;;;;;25.52;13.45;;;;;;;12.32;45.74;100194.16;6330653;22;20063;-93
2022/03/29 00:05:40;;;;;;;26.10;14.80;;;;;;;12.23;46.59;100180.47;6297938;22;20030;-92
2022/03/29 00:08:26;;;;;;;27.20;15.82;;;;;;;12.05;46.87;100147.00;6325128;22;20016;-93
2022/03/29 00:11:07;;;;;;;29.15;16.15;;;;;;;12.22;47.57;100177.91;6299557;22;20108;-92
2022/03/29 00:13:50;;;;;;;29.35;16.88;;;;;;;12.29;47.57;100188.06;6328634;22;20019;-92
2022/03/29 00:16:40;;;;;;;29.23;17.55;;;;;;;12.47;48.38;100220.69;6297021;22;20011;-91
2022/03/29 00:19:13;;;;;;;30.25;17.35;;;;;;;12.50;48.48;100219.66;6320239;22;20049;-92
2022/03/29 00:34:02;;;;;;;35.65;19.17;;;;;;;12.00;50.31;100162.31;6324119;22;20006;-88
2022/03/29 00:36:36;;;;;;;34.13;18.35;;;;;;;11.88;50.79;100149.75;6325986;22;20011;-92
2022/03/29 00:42:11;;;;;;;34.25;19.85;;;;;;;12.11;51.37;100177.66;6275391;22;20149;-91
2022/03/29 00:44:48;;;;;;;37.30;20.08;;;;;;;12.00;51.62;100162.31;6363460;22;20011;-91
2022/03/29 00:47:30;;;;;;;33.25;19.75;;;;;;;12.22;51.95;100200.00;6363834;22;20088;-94
2022/03/29 00:50:25;;;;;;;38.45;22.17;;;;;;;11.98;52.65;100148.28;6358739;22;20043;-95
2022/03/29 00:53:23;;;;;;;38.85;20.67;;;;;;;11.78;52.72;100114.09;6354133;22;20051;-95
2022/03/29 00:56:05;;;;;;;38.88;21.80;;;;;;;11.81;53.37;100114.75;6354103;22;20015;-93
2022/03/29 00:59:03;;;;;;;40.17;23.33;;;;;;;11.99;53.28;100149.13;6329762;22;20034;-94
2022/03/29 01:01:39;;;;;;;35.80;21.40;;;;;;;11.76;53.37;100114.16;6330848;22;20042;-92
2022/03/29 01:04:33;;;;;;;40.70;22.15;;;;;;;12.09;53.66;100163.63;6355740;22;20031;-94
2022/03/29 01:07:20;;;;;;;39.95;21.63;;;;;;;11.93;53.72;100145.06;6358672;22;20015;-93
2022/03/29 01:09:53;;;;;;;38.78;21.77;;;;;;;11.73;53.69;100108.13;6355321;22;20327;-93
2022/03/29 01:12:42;;;;;;;34.75;20.67;;;;;;;11.91;54.12;100131.00;6354544;22;20023;-96
2022/03/29 01:15:23;;;;;;;;;;;;;;;12.10;53.83;100173.28;6287628;22;20041;-93
2022/03/29 01:18:06;;;;;;;34.47;19.98;;;;;;;12.02;53.77;100171.06;6355729;22;19971;-92
2022/03/29 01:23:38;;;;;;;34.67;19.90;;;;;;;11.52;53.39;100100.44;6295148;22;20009;-91
2022/03/29 01:26:16;;;;;;;34.45;19.83;;;;;;;11.64;53.58;100121.94;6329770;22;20071;-94
2022/03/29 01:29:15;;;;;;;36.15;21.42;;;;;;;11.86;53.97;100160.44;6324735;22;20015;-95
2022/03/29 01:31:53;;;;;;;35.70;20.10;;;;;;;11.39;54.04;100074.69;6324238;22;20026;-95
2022/03/29 01:34:25;;;;;;;37.72;21.38;;;;;;;11.37;54.37;100077.41;6323525;22;20026;-94
2022/03/29 01:37:10;;;;;;;36.25;20.27;;;;;;;11.35;54.88;100081.94;6325985;22;20025;-91
2022/03/29 01:40:45;;;;;;;41.20;21.67;;;;;;;11.46;55.02;100100.78;6315090;22;20030;-93
2022/03/29 01:43:44;;;;;;;35.55;20.77;;;;;;;11.68;55.19;100134.06;6341172;22;20015;-94
2022/03/29 01:46:27;;;;;;;36.85;21.02;;;;;;;11.14;55.59;100051.34;6330947;22;20030;-93
2022/03/29 01:49:05;;;;;;;33.35;20.92;;;;;;;11.18;56.25;100063.47;6362622;22;20019;-89
2022/03/29 01:51:52;;;;;;;37.97;20.58;;;;;;;11.60;56.00;100131.84;6362348;22;20007;-92
2022/03/29 01:54:38;;;;;;;35.65;20.92;;;;;;;11.41;56.33;100105.47;6358268;22;20007;-92
2022/03/29 01:57:16;;;;;;;37.58;22.00;;;;;;;11.05;56.44;100050.03;6359249;22;20014;-96
2022/03/29 02:02:32;;;;;;;37.40;21.80;;;;;;;10.97;57.04;100043.44;6301736;22;20022;-93
2022/03/29 02:05:03;;;;;;;40.03;21.58;;;;;;;10.98;57.43;100053.09;6360916;22;20014;-90
2022/03/29 02:07:39;;;;;;;40.17;23.10;;;;;;;10.94;57.52;100047.09;6364872;22;20002;-91
2022/03/29 02:10:07;;;;;;;40.75;22.73;;;;;;;11.12;57.93;100085.00;6356631;22;20062;-95
2022/03/29 02:12:36;;;;;;;41.83;24.23;;;;;;;10.88;58.33;100050.94;6349966;22;20075;-92
2022/03/29 02:15:08;;;;;;;41.72;23.13;;;;;;;11.30;59.29;100123.78;6322390;22;20015;-92
2022/03/29 02:17:48;;;;;;;41.92;24.65;;;;;;;11.04;58.96;100081.91;6351303;22;20375;-93
2022/03/29 02:20:24;;;;;;;40.67;23.85;;;;;;;11.26;59.54;100111.63;6349635;22;20023;-95
2022/03/29 02:22:55;;;;;;;39.70;24.40;;;;;;;11.04;59.88;100087.19;6344696;22;20632;-94
2022/03/29 02:25:38;;;;;;;47.97;25.20;;;;;;;11.04;60.60;100089.84;6346395;22;20019;-92
2022/03/29 02:28:09;;;;;;;48.30;24.67;;;;;;;10.88;61.00;100056.22;6349380;22;20022;-93
2022/03/29 02:30:39;;;;;;;44.15;25.90;;;;;;;11.19;61.33;100107.56;6350220;22;20015;-92
2022/03/29 02:33:16;;;;;;;44.30;25.67;;;;;;;10.76;61.35;100041.00;6349421;22;20019;-96
2022/03/29 02:35:54;;;;;;;45.60;25.38;;;;;;;11.21;62.35;100118.94;6350911;22;20417;-95
2022/03/29 02:38:49;;;;;;;47.80;26.00;;;;;;;11.21;62.21;100103.06;6348712;22;20023;-94
2022/03/29 02:41:25;;;;;;;44.63;25.48;;;;;;;11.16;62.64;100105.13;6348389;22;20022;-96
2022/03/29 02:44:08;;;;;;;43.13;24.33;;;;;;;10.86;62.80;100059.94;6347218;22;20111;-96
2022/03/29 02:46:41;;;;;;;46.00;26.67;;;;;;;10.82;62.95;100047.78;6347991;22;20071;-95
2022/03/29 02:49:24;;;;;;;50.38;26.60;;;;;;;10.58;63.19;100018.13;6344066;22;20068;-95
2022/03/29 02:52:13;;;;;;;46.80;27.15;;;;;;;10.95;63.86;100085.91;6351366;22;20014;-93
2022/03/29 02:54:56;;;;;;;49.08;27.80;;;;;;;10.55;64.04;100018.28;6353209;22;20019;-94
2022/03/29 02:57:34;;;;;;;48.63;26.80;;;;;;;10.45;64.81;100017.06;6334012;22;20015;-92
2022/03/29 03:00:06;;;;;;;48.55;26.02;;;;;;;10.52;64.63;100029.06;6333471;22;20006;-93
2022/03/29 03:02:37;;;;;;;47.05;26.65;;;;;;;10.37;64.99;100003.41;6363043;22;20054;-93
2022/03/29 03:05:14;;;;;;;48.03;27.40;;;;;;;10.52;65.28;100032.56;6362285;22;20083;-91
2022/03/29 03:08:02;;;;;;;50.00;27.38;;;;;;;10.83;65.58;100090.06;6336641;22;20003;-93
2022/03/29 03:10:43;;;;;;;50.30;28.45;;;;;;;10.78;65.24;100089.44;6362556;22;20030;-92
2022/03/29 03:13:18;;;;;;;47.03;26.20;;;;;;;10.58;65.86;100051.69;6361633;22;20029;-92
2022/03/29 03:15:58;;;;;;;46.75;27.42;;;;;;;10.31;65.85;100009.84;6357931;22;20021;-94
2022/03/29 03:18:36;;;;;;;51.88;27.80;;;;;;;10.23;65.93;99998.81;6358091;22;20087;-93
2022/03/29 03:21:23;;;;;;;45.75;27.10;;;;;;;10.42;66.29;100038.41;6360496;22;20023;-95
2022/03/29 03:23:51;;;;;;;46.15;27.38;;;;;;;10.66;66.62;100074.22;6328704;22;20064;-93
2022/03/29 03:26:18;;;;;;;47.28;26.98;;;;;;;10.68;66.57;100071.50;6356113;22;20022;-93
2022/03/29 03:28:47;;;;;;;46.55;27.83;;;;;;;10.52;66.79;100045.81;6354715;22;20022;-93
2022/03/29 03:31:14;;;;;;;50.78;28.67;;;;;;;10.51;66.69;100033.50;6354440;22;20056;-93
2022/03/29 03:33:57;;;;;;;;;;;;;;;10.73;66.75;100067.63;6356108;22;20025;-95
2022/03/29 03:36:25;;;;;;;50.45;27.27;;;;;;;10.41;66.80;100026.09;6359026;22;19914;-91
2022/03/29 03:38:54;;;;;;;54.13;28.45;;;;;;;10.48;67.23;100035.47;6360071;22;20018;-92
2022/03/29 03:41:22;;;;;;;46.00;26.83;;;;;;;10.36;67.27;100012.28;6361918;22;20022;-94
2022/03/29 03:43:49;;;;;;;51.53;28.20;;;;;;;10.15;67.14;99993.03;6332550;22;20036;-92
2022/03/29 03:46:24;;;;;;;52.55;28.42;;;;;;;10.14;67.36;99986.88;6355061;22;20050;-91
2022/03/29 03:48:53;;;;;;;51.13;27.77;;;;;;;10.51;67.66;100022.06;6354178;22;20042;-94
2022/03/29 03:51:25;;;;;;;51.33;28.33;;;;;;;10.28;67.25;99977.41;6330022;22;20018;-93
2022/03/29 03:54:01;;;;;;;46.42;27.75;;;;;;;10.44;67.14;100005.63;6357658;22;20022;-91
2022/03/29 03:56:33;;;;;;;46.80;28.20;;;;;;;10.59;67.46;100025.16;6361338;22;20018;-92
2022/03/29 03:59:04;;;;;;;50.78;27.45;;;;;;;10.44;67.48;100002.13;6335423;22;20074;-92
2022/03/29 04:01:48;;;;;;;52.47;28.92;;;;;;;10.39;67.78;99997.06;6359400;22;20006;-94
2022/03/29 04:04:21;;;;;;;52.90;28.90;;;;;;;10.50;67.63;100015.06;6363162;22;20022;-91
2022/03/29 04:06:53;;;;;;;51.45;28.58;;;;;;;10.24;67.75;99975.84;6363028;22;20055;-92
2022/03/29 04:09:25;;;;;;;47.05;28.73;;;;;;;10.50;67.29;100013.25;6361737;22;20067;-91
2022/03/29 04:11:57;;;;;;;50.63;29.15;;;;;;;10.49;67.53;100016.84;6351718;22;20026;-94
2022/03/29 04:14:25;;;;;;;52.08;28.48;;;;;;;10.14;67.88;99963.06;6348102;22;20049;-91
2022/03/29 04:16:56;;;;;;;50.22;28.60;;;;;;;10.52;67.85;100022.00;6353408;22;20014;-96
2022/03/29 04:19:38;;;;;;;49.58;28.73;;;;;;;10.39;68.26;100010.31;6327591;22;20029;-96
2022/03/29 04:22:13;;;;;;;51.05;28.85;;;;;;;10.04;68.45;99951.28;6298712;22;20453;-93
2022/03/29 04:24:48;;;;;;;48.85;28.35;;;;;;;10.16;68.68;99974.44;6346086;22;20080;-94
2022/03/29 04:27:24;;;;;;;49.22;28.02;;;;;;;9.92;68.80;99951.88;6346200;22;20018;-95
2022/03/29 04:29:56;;;;;;;50.33;29.35;;;;;;;9.94;69.31;99946.50;6300290;22;20018;-94
2022/03/29 04:32:46;;;;;;;52.65;29.90;;;;;;;10.09;69.26;99988.03;6356096;22;20021;-92
2022/03/29 04:35:17;;;;;;;54.97;29.35;;;;;;;10.19;69.66;99995.47;6362671;22;20019;-90
2022/03/29 04:37:46;;;;;;;49.00;27.55;;;;;;;10.21;69.84;100002.50;6325080;22;20064;-93
2022/03/29 04:40:13;;;;;;;52.85;29.95;;;;;;;9.91;69.69;99939.63;6350665;22;20346;-96
2022/03/29 04:43:00;;;;;;;56.58;31.08;;;;;;;9.92;69.77;99938.66;6343621;22;20015;-93
2022/03/29 04:45:38;;;;;;;52.95;28.73;;;;;;;10.05;69.37;99963.56;6343495;22;20023;-94
2022/03/29 04:48:25;;;;;;;49.90;28.50;;;;;;;10.29;69.50;100005.56;6344206;22;20092;-95
2022/03/29 04:50:54;;;;;;;51.95;28.63;;;;;;;9.87;69.59;99945.13;6319524;22;20025;-95
2022/03/29 04:53:28;;;;;;;50.53;29.05;;;;;;;9.97;70.08;99964.88;6347377;22;20074;-96
2022/03/29 04:56:16;;;;;;;47.95;28.17;;;;;;;9.72;69.73;99931.75;6346661;22;20062;-94
2022/03/29 04:58:50;;;;;;;51.13;27.83;;;;;;;9.97;69.90;99978.94;6347719;22;20019;-93
2022/03/29 05:01:22;;;;;;;50.60;28.85;;;;;;;9.75;69.57;99947.47;6347820;22;20022;-95
2022/03/29 05:04:09;;;;;;;44.97;27.17;;;;;;;9.70;69.47;99924.84;6317937;22;20053;-95
2022/03/29 05:06:39;;;;;;;45.13;26.40;;;;;;;9.65;69.16;99919.78;6336965;22;20029;-95
2022/03/29 05:09:16;;;;;;;47.45;26.85;;;;;;;10.00;68.99;99978.81;6344421;22;20045;-95
2022/03/29 05:11:59;;;;;;;43.90;25.58;;;;;;;9.64;68.98;99922.50;6351016;22;20026;-93
2022/03/29 05:14:44;;;;;;;47.05;26.25;;;;;;;9.84;69.09;99940.84;6360101;22;20079;-93
2022/03/29 05:17:30;;;;;;;47.10;25.73;;;;;;;10.04;69.35;99985.66;6362205;22;20011;-92
2022/03/29 05:20:03;;;;;;;45.97;24.98;;;;;;;10.06;68.85;99983.78;6356494;22;20349;-94
2022/03/29 05:22:32;;;;;;;45.03;25.50;;;;;;;9.83;68.85;99944.44;6329278;22;20034;-93
2022/03/29 05:25:05;;;;;;;44.60;24.95;;;;;;;9.66;68.55;99920.63;6352234;22;20026;-96
2022/03/29 05:27:57;;;;;;;43.38;25.35;;;;;;;9.60;69.08;99921.78;6349368;22;20045;-93
2022/03/29 05:30:42;;;;;;;41.15;24.65;;;;;;;9.75;68.77;99946.63;6356522;22;20014;-94
2022/03/29 05:33:22;;;;;;;46.05;26.33;;;;;;;9.90;69.20;99963.50;6355321;22;20019;-96
2022/03/29 05:35:57;;;;;;;48.60;25.30;;;;;;;10.03;69.12;99986.59;6332424;22;20025;-93
2022/03/29 05:38:47;;;;;;;45.35;26.17;;;;;;;9.80;69.27;99955.16;6358698;22;20087;-92
2022/03/29 05:41:34;;;;;;;50.97;27.52;;;;;;;9.64;69.69;99920.69;6287657;22;20181;-91
2022/03/29 05:44:22;;;;;;;53.42;26.35;;;;;;;9.65;70.19;99925.06;6294806;22;20055;-92
2022/03/29 05:50:03;;;;;;;48.33;27.20;;;;;;;10.02;70.28;99997.25;6295819;22;20055;-94
2022/03/29 05:52:55;;;;;;;51.10;28.83;;;;;;;10.08;70.25;100010.13;6292228;22;20024;-90
2022/03/29 05:58:39;;;;;;;50.97;28.00;;;;;;;9.88;69.85;99958.28;6360789;22;20007;-94
2022/03/29 06:01:40;;;;;;;46.28;27.17;;;;;;;9.99;70.21;99982.38;6335601;22;20010;-96
2022/03/29 06:04:30;;;;;;;49.83;27.55;;;;;;;10.15;70.42;99993.88;6348456;22;20027;-92
2022/03/29 06:16:37;;;;;;;;;;;;;;;;;;;;;
2022/03/29 06:22:28;;;;;;;48.60;27.00;;;;;;;10.54;68.69;100014.81;6268266;22;20677;31
2022/03/29 06:25:12;;;;;;;45.55;27.02;;;;;;;10.47;68.43;99994.88;6348214;22;20062;-93
2022/03/29 06:28:28;;;;;;;53.28;26.80;;;;;;;10.19;67.90;99942.56;6356901;22;20475;-91
2022/03/29 06:31:27;;;;;;;49.60;26.80;;;;;;;10.35;67.61;99955.00;6335883;22;20014;-94
2022/03/29 06:34:09;;;;;;;48.03;26.52;;;;;;;10.58;67.58;99981.06;6354268;22;20011;-94
2022/03/29 06:36:55;;;;;;;48.80;27.42;;;;;;;10.78;66.90;100003.84;6349256;22;20042;-92
2022/03/29 06:39:36;;;;;;;45.50;25.88;;;;;;;10.74;66.83;99989.91;6358885;22;20099;-92
2022/03/29 06:42:46;;;;;;;46.55;26.10;;;;;;;10.87;66.01;99998.88;6354942;22;20626;-95
2022/03/29 06:45:31;;;;;;;;;;;;;;;;;;;;;
2022/03/29 06:48:05;;;;;;;45.78;24.98;;;;;;;10.89;64.38;99981.13;6330246;22;20033;-92
2022/03/29 06:50:53;;;;;;;41.70;24.63;;;;;;;11.10;63.90;100002.94;6360464;22;20014;-91
2022/03/29 06:53:53;;;;;;;44.25;24.50;;;;;;;11.26;62.95;100016.19;6356904;22;20014;-92
2022/03/29 07:02:34;;;;;;;40.38;22.98;;;;;;;11.63;61.78;100014.13;6285357;22;20072;-94
2022/03/29 07:30:25;;;;;;;32.22;19.70;;;;;;;12.14;56.17;99951.84;6296701;22;20032;-92
2022/03/29 07:33:23;;;;;;;33.15;20.13;;;;;;;12.19;55.92;99953.28;6262921;22;20110;-95
2022/03/29 07:36:48;;;;;;;31.48;19.67;;;;;;;12.70;56.47;100017.44;6282556;22;20016;-93
2022/03/29 07:43:58;;;;;;;28.57;18.23;;;;;;;12.88;55.18;100013.66;6083161;23;20090;-94
2022/03/29 07:51:02;;;;;;;31.48;18.27;;;;;;;12.74;54.76;99983.59;5939077;24;20025;-94
2022/03/29 07:54:14;;;;;;;30.15;18.80;;;;;;;13.02;53.80;100010.13;5936318;24;20029;-94
2022/03/29 08:00:38;;;;;;;25.42;17.38;;;;;;;13.00;53.40;99962.38;5881166;24;20145;-93
2022/03/29 08:04:11;;;;;;;30.48;17.88;;;;;;;13.23;52.36;99981.34;5877151;24;20026;-93
2022/03/29 08:07:23;;;;;;;26.45;16.88;;;;;;;13.04;52.61;99960.38;5876251;24;20155;-94
2022/03/29 08:10:13;;;;;;;26.13;16.35;;;;;;;13.41;51.31;100009.41;5855080;24;20111;-93
2022/03/29 08:15:47;;;;;;;24.88;16.15;;;;;;;13.24;51.69;100013.16;6286288;22;20039;-91
2022/03/29 08:19:07;;;;;;;;;;;;;;;;;;;;;
2022/03/29 08:22:08;;;;;;;24.98;16.67;;;;;;;12.76;52.05;99961.25;6312916;22;20050;-94
2022/03/29 08:24:56;;;;;;;32.30;18.02;;;;;;;13.06;52.51;100027.59;6295266;22;20053;-95
2022/03/29 08:27:29;;;;;;;24.83;17.33;;;;;;;12.65;53.15;99959.28;6315839;22;20019;-95
2022/03/29 08:30:26;;;;;;;30.23;17.33;;;;;;;12.70;53.00;99955.50;6321554;22;20015;-96
2022/03/29 08:33:56;;;;;;;27.02;17.77;;;;;;;12.83;52.75;99956.41;6307004;22;20054;-95
2022/03/29 08:36:39;;;;;;;28.08;17.33;;;;;;;12.79;53.23;99958.41;6322980;22;20030;-95
2022/03/29 08:39:21;;;;;;;30.02;19.23;;;;;;;12.87;52.88;99947.31;6319888;22;20034;-95
2022/03/29 08:43:31;;;;;;;28.27;17.40;;;;;;;13.32;53.81;100002.88;6319154;22;20086;-96
2022/03/29 08:46:38;;;;;;;31.05;18.67;;;;;;;13.30;53.29;99978.19;6256269;22;20019;-96
2022/03/29 08:50:11;;;;;;;31.73;18.60;;;;;;;13.10;53.49;99969.75;6329888;22;20003;-94
2022/03/29 08:53:16;;;;;;;32.30;20.40;;;;;;;12.99;53.35;99965.13;6327289;22;20089;-91
2022/03/29 08:59:51;;;;;;;30.10;19.70;;;;;;;13.03;53.65;99941.88;6330981;22;20007;-94
2022/03/29 09:06:48;;;;;;;;;;;;;;;;;;;;;
2022/03/29 09:10:27;;;;;;;28.80;18.57;;;;;;;13.60;52.30;99942.56;6320759;22;20045;-93
2022/03/29 09:14:02;;;;;;;27.20;18.13;;;;;;;13.88;50.85;99942.41;6327651;22;20437;-91
2022/03/29 09:17:47;;;;;;;28.00;16.92;;;;;;;14.08;49.94;99941.06;6295571;22;20042;-92
2022/03/29 09:21:13;;;;;;;26.75;18.05;;;;;;;14.17;49.99;99937.75;6296085;22;20008;-93
2022/03/29 09:24:14;;;;;;;27.65;17.83;;;;;;;14.83;49.19;99987.31;6301480;22;20015;-95
2022/03/29 09:30:23;;;;;;;28.83;16.77;;;;;;;14.98;46.52;99951.56;6341180;22;20019;-95
2022/03/29 09:40:03;;;;;;;;;;;;;;;;;;;;;
2022/03/29 09:43:33;;;;;;;25.65;17.73;;;;;;;15.85;45.00;99963.81;6360489;22;20006;-92
2022/03/29 09:49:27;;;;;;;24.75;18.20;;;;;;;16.05;45.34;99939.13;6299673;22;20072;-93
2022/03/29 09:52:18;;;;;;;26.48;17.35;;;;;;;16.29;44.39;99904.31;6287707;22;20047;-94
2022/03/29 09:55:09;;;;;;;25.73;17.90;;;;;;;16.74;43.69;99963.16;6285821;22;20020;-95
2022/03/29 09:57:51;;;;;;;24.23;18.63;;;;;;;16.81;43.58;99961.72;6286071;22;20016;-95
2022/03/29 10:00:39;;;;;;;27.35;18.17;;;;;;;16.51;43.38;99930.22;6285222;22;20030;-94
2022/03/29 10:03:52;;;;;;;24.08;16.73;;;;;;;17.06;42.18;99936.50;6290340;22;20019;-94
2022/03/29 10:06:24;;;;;;;23.75;17.10;;;;;;;17.15;40.90;99903.69;6290941;22;20011;-93
2022/03/29 10:09:26;;;;;;;26.95;17.92;;;;;;;17.06;40.59;99878.50;6285354;22;20085;-95
2022/03/29 10:11:59;;;;;;;24.48;16.67;;;;;;;17.06;41.21;99891.03;6285687;22;20039;-95
2022/03/29 10:14:29;;;;;;;25.77;17.40;;;;;;;17.21;40.97;99886.25;6285575;22;20020;-94
2022/03/29 10:20:41;;;;;;;24.33;17.02;;;;;;;17.45;39.65;99858.31;6281053;22;20032;-94
2022/03/29 10:23:24;;;;;;;19.70;14.77;;;;;;;17.17;39.41;99853.53;6284215;22;20023;-92
2022/03/29 10:26:09;;;;;;;23.75;16.00;;;;;;;17.01;39.55;99848.59;6282173;22;20020;-96
2022/03/29 10:28:40;;;;;;;22.85;15.10;;;;;;;17.53;39.44;99905.84;6283596;22;20015;-93
2022/03/29 10:31:47;;;;;;;22.88;14.48;;;;;;;17.74;39.03;99900.56;6292301;22;20083;-92
2022/03/29 10:34:31;;;;;;;22.20;14.77;;;;;;;17.97;37.35;99895.91;6295352;22;20019;-93
2022/03/29 10:37:27;;;;;;;21.45;14.98;;;;;;;17.76;38.15;99867.31;6291005;22;20019;-96
2022/03/29 10:40:20;;;;;;;;;;;;;;;;;;;;;
2022/03/29 10:43:55;;;;;;;20.75;15.55;;;;;;;17.60;38.70;99840.09;6359905;22;20030;-92
2022/03/29 10:47:27;;;;;;;;;;;;;;;;;;;;;
2022/03/29 10:53:46;;;;;;;21.88;14.70;;;;;;;18.49;36.60;99887.75;6352476;22;20023;-93
2022/03/29 10:57:13;;;;;;;18.77;13.02;;;;;;;18.45;35.75;99805.03;6360481;22;20075;-91
2022/03/29 11:03:56;;;;;;;19.77;14.68;;;;;;;18.41;35.74;99807.16;6203102;23;20032;-96
2022/03/29 11:07:44;;;;;;;;;;;;;;;;;;;;;
2022/03/29 11:10:40;;;;;;;17.63;13.63;;;;;;;18.16;36.76;99821.00;6355905;22;20026;-91
2022/03/29 11:13:48;;;;;;;17.60;12.65;;;;;;;18.88;35.94;99843.16;6299421;22;20128;-94
2022/03/29 11:47:28;;;;;;;15.82;11.00;;;;;;;20.29;33.09;99755.59;6280879;22;20003;-90
2022/03/29 11:56:44;;;;;;;16.60;11.75;;;;;;;21.35;29.97;99758.44;6325989;22;20037;31
2022/03/29 11:59:57;;;;;;;17.65;13.00;;;;;;;20.99;31.19;99730.66;6267378;23;20071;-91
2022/03/29 12:11:34;;;;;;;14.85;11.75;;;;;;;20.58;31.88;99712.44;6291285;22;20113;-92
2022/03/29 12:14:59;;;;;;;;;;;;;;;;;;;;;
2022/03/29 12:24:10;;;;;;;18.58;12.88;;;;;;;20.63;30.94;99664.38;6288706;22;20010;-93
2022/03/29 12:27:58;;;;;;;19.33;13.48;;;;;;;20.88;31.31;99730.03;6290802;22;20086;-93
2022/03/29 12:38:20;;;;;;;20.05;12.73;;;;;;;19.60;32.50;99659.31;6319929;22;20011;-91
2022/03/29 12:45:15;;;;;;;17.17;11.98;;;;;;;19.37;32.45;99634.63;5921672;22;9000755;-96
2022/03/29 13:03:49;;;;;;;19.25;12.15;;;;;;;18.34;34.69;99695.25;6287977;22;19970;-93
2022/03/29 13:07:00;;;;;;;;;;;;;;;;;;;;;
2022/03/29 13:13:19;;;;;;;18.92;11.25;;;;;;;18.26;35.21;99660.25;6191256;23;20051;-94
2022/03/29 13:16:50;;;;;;;17.38;11.45;;;;;;;18.34;34.66;99660.41;6201050;23;20048;-93
2022/03/29 13:20:56;;;;;;;13.93;10.32;;;;;;;17.82;35.32;99596.28;6195581;23;20033;-92
2022/03/29 13:24:36;;;;;;;;;;;;;;;;;;;;;
2022/03/29 13:27:52;;;;;;;16.25;10.35;;;;;;;18.08;36.19;99622.56;6268643;22;20103;-95
2022/03/29 13:30:49;;;;;;;16.13;10.90;;;;;;;18.18;35.57;99626.09;6324553;22;20019;-93
2022/03/29 13:34:04;;;;;;;;;;;;;;;;;;;;;
2022/03/29 13:53:16;;;;;;;;;;;;;;;;;;;;;
2022/03/29 13:56:01;;;;;;;13.77;9.07;;;;;;;18.22;34.96;99557.84;6254880;22;20045;-90
2022/03/29 13:59:32;;;;;;;;;;;;;;;;;;;;;
2022/03/29 14:06:55;;;;;;;14.35;9.43;;;;;;;18.08;35.23;99577.03;6326999;22;20030;-90
2022/03/29 14:21:26;;;;;;;15.60;9.90;;;;;;;17.87;35.52;99547.66;6322882;22;20038;-92
2022/03/29 14:27:49;;;;;;;15.60;9.73;;;;;;;17.76;36.13;99480.84;6281472;22;20003;-94
2022/03/29 14:30:44;;;;;;;17.77;11.18;;;;;;;17.75;35.09;99490.72;6318656;22;20045;-93
2022/03/29 14:33:51;;;;;;;12.93;9.77;;;;;;;17.61;35.55;99483.06;6339099;22;20023;-94
2022/03/29 14:36:36;;;;;;;14.40;9.60;;;;;;;17.69;35.53;99501.13;6347075;22;20019;-91
2022/03/29 14:42:23;;;;;;;13.68;8.43;;;;;;;17.79;35.37;99513.53;6358242;22;20026;-91
2022/03/29 14:45:23;;;;;;;11.07;7.68;;;;;;;17.66;34.83;99486.16;6336942;22;20053;-93
2022/03/29 14:48:36;;;;;;;;;;;;;;;;;;;;;
2022/03/29 17:36:30;;;;;;;10.27;5.45;;;;;;;14.64;41.57;99382.88;6326639;22;20022;-90
2022/03/29 18:12:40;;;;;;;7.93;5.28;;;;;;;13.72;45.41;99384.78;6362293;22;20013;-88
2022/03/29 18:16:14;;;;;;;;;;;;;;;;;;;;;
2022/03/29 18:36:33;;;;;;;13.00;8.63;;;;;;;13.03;48.13;99343.88;6295611;22;20082;-91
2022/03/29 19:19:39;;;;;;;;;;;;;;;;;;;;;
2022/03/29 19:32:02;;;;;;;14.68;7.85;;;;;;;12.71;53.23;99400.19;6307996;22;20055;-94
2022/03/29 19:39:37;;;;;;;15.23;8.02;;;;;;;12.60;54.19;99403.59;6340710;22;20042;-91
2022/03/29 20:25:33;;;;;;;18.20;10.43;;;;;;;11.73;54.77;99400.81;6239396;23;20077;-91
2022/03/29 20:33:10;;;;;;;;;;;;;;;;;;;;;
2022/03/29 20:45:33;;;;;;;19.85;10.40;;;;;;;11.18;55.08;99316.16;6078198;23;20015;-92
2022/03/29 23:10:31;;;;;;;20.38;12.95;;;;;;;11.34;50.32;99330.09;6276570;22;20021;-90
2022/03/29 23:49:08;;;;;;;26.75;16.98;;;;;;;10.82;51.57;99232.91;6291296;22;20172;-89
